createdAt,value
2022-08-22T00:00:06.916Z,0
2022-08-22T00:15:02.977Z,0
2022-08-22T00:30:00.660Z,0
2022-08-22T00:44:59.807Z,0
2022-08-22T01:00:29.057Z,0
2022-08-22T01:14:59.757Z,0
2022-08-22T01:30:03.227Z,0
2022-08-22T01:44:59.603Z,0
2022-08-22T02:00:04.969Z,0
2022-08-22T02:15:05.772Z,0
2022-08-22T02:30:06.194Z,0
2022-08-22T02:45:03.821Z,0
2022-08-22T03:00:02.894Z,0
2022-08-22T03:15:05.208Z,0
2022-08-22T03:30:01.420Z,0
2022-08-22T03:45:01.962Z,0
2022-08-22T04:00:01.115Z,0
2022-08-22T04:15:03.082Z,0
2022-08-22T04:30:03.700Z,2
2022-08-22T04:45:06.074Z,11
2022-08-22T05:00:05.372Z,23
2022-08-22T05:15:01.772Z,37
2022-08-22T05:30:03.889Z,49
2022-08-22T05:45:01.574Z,100
2022-08-22T06:00:02.336Z,142
2022-08-22T06:15:11.825Z,225
2022-08-22T06:30:06.129Z,231
2022-08-22T06:45:03.538Z,194
2022-08-22T07:00:02.722Z,182
2022-08-22T07:15:01.908Z,205
2022-08-22T07:30:04.140Z,266
2022-08-22T07:45:06.245Z,301
2022-08-22T08:00:06.666Z,295
2022-08-22T08:15:02.434Z,281
2022-08-22T08:30:04.292Z,303
2022-08-22T08:45:06.085Z,286
2022-08-22T09:00:06.650Z,269
2022-08-22T09:15:02.829Z,291
2022-08-22T09:30:01.938Z,243
2022-08-22T09:45:04.034Z,245
2022-08-22T10:00:00.298Z,317
2022-08-22T10:14:59.443Z,325
2022-08-22T10:30:05.716Z,356
2022-08-22T10:45:11.981Z,388
2022-08-22T11:00:07.818Z,452
2022-08-22T11:15:44.799Z,591
2022-08-22T11:30:03.301Z,631
2022-08-22T11:45:01.030Z,484
2022-08-22T12:00:01.395Z,483
2022-08-22T12:15:00.177Z,564
2022-08-22T12:30:01.946Z,443
2022-08-22T12:45:00.685Z,322
2022-08-22T13:00:05.578Z,281
2022-08-22T13:15:05.626Z,186
2022-08-22T13:30:02.956Z,144
2022-08-22T13:45:04.682Z,143
2022-08-22T14:00:05.910Z,182
2022-08-22T14:15:03.846Z,202
2022-08-22T14:30:01.941Z,198
2022-08-22T14:45:06.548Z,179
2022-08-22T15:00:04.161Z,147
2022-08-22T15:15:05.165Z,126
2022-08-22T15:30:06.193Z,137
2022-08-22T15:45:01.233Z,148
2022-08-22T15:59:59.346Z,245
2022-08-22T16:15:06.423Z,294
2022-08-22T16:30:04.495Z,169
2022-08-22T16:44:59.415Z,202
2022-08-22T17:00:03.511Z,118
2022-08-22T17:15:03.030Z,65
2022-08-22T17:30:04.543Z,54
2022-08-22T17:45:00.764Z,32
2022-08-22T18:00:02.962Z,11
2022-08-22T18:15:06.970Z,3
2022-08-22T18:30:05.064Z,0
2022-08-22T18:44:59.794Z,0
2022-08-22T19:00:06.487Z,0
2022-08-22T19:15:05.186Z,0
2022-08-22T19:29:59.402Z,0
2022-08-22T19:45:00.211Z,0
2022-08-22T20:00:00.989Z,0
2022-08-22T20:15:00.303Z,0
2022-08-22T20:30:02.621Z,0
2022-08-22T20:45:12.286Z,0
2022-08-22T21:00:21.020Z,0
2022-08-22T21:15:03.812Z,0
2022-08-22T21:30:00.992Z,0
2022-08-22T21:45:01.423Z,0
2022-08-22T22:00:06.847Z,0
2022-08-22T22:15:03.410Z,0
2022-08-22T22:30:02.882Z,0
2022-08-22T22:45:00.801Z,0
2022-08-22T23:00:01.845Z,0
2022-08-22T23:15:05.878Z,0
2022-08-22T23:30:06.941Z,0
2022-08-22T23:45:00.482Z,0
